sensor_id;sensor_type;location;lat;lon;timestamp;P1;durP1;ratioP1;P2;durP2;ratioP2
74503;SDS011;62988;55.776;37.544;2022-09-03T00:00:13;3.50;;;1.20;;
74503;SDS011;62988;55.776;37.544;2022-09-03T00:05:22;3.13;;;1.10;;
74503;SDS011;62988;55.776;37.544;2022-09-03T00:10:51;3.70;;;1.20;;
74503;SDS011;62988;55.776;37.544;2022-09-03T00:13:26;2.95;;;0.90;;
74503;SDS011;62988;55.776;37.544;2022-09-03T00:15:57;4.07;;;1.10;;
74503;SDS011;62988;55.776;37.544;2022-09-03T00:18:26;2.58;;;1.25;;
74503;SDS011;62988;55.776;37.544;2022-09-03T00:20:58;4.38;;;1.10;;
74503;SDS011;62988;55.776;37.544;2022-09-03T00:23:33;3.65;;;0.95;;
74503;SDS011;62988;55.776;37.544;2022-09-03T00:31:19;3.88;;;0.45;;
74503;SDS011;62988;55.776;37.544;2022-09-03T00:33:56;1.88;;;0.80;;
74503;SDS011;62988;55.776;37.544;2022-09-03T00:36:47;2.33;;;0.70;;
74503;SDS011;62988;55.776;37.544;2022-09-03T00:39:13;2.50;;;0.50;;
74503;SDS011;62988;55.776;37.544;2022-09-03T00:45:19;1.88;;;0.50;;
74503;SDS011;62988;55.776;37.544;2022-09-03T00:53:13;2.63;;;0.77;;
74503;SDS011;62988;55.776;37.544;2022-09-03T00:55:57;1.95;;;0.73;;
74503;SDS011;62988;55.776;37.544;2022-09-03T01:01:45;3.40;;;0.82;;
74503;SDS011;62988;55.776;37.544;2022-09-03T01:04:51;2.28;;;0.85;;
74503;SDS011;62988;55.776;37.544;2022-09-03T01:07:43;1.80;;;0.60;;
74503;SDS011;62988;55.776;37.544;2022-09-03T01:13:15;4.75;;;1.30;;
74503;SDS011;62988;55.776;37.544;2022-09-03T01:32:18;6.22;;;0.93;;
74503;SDS011;62988;55.776;37.544;2022-09-03T01:35:01;2.60;;;1.00;;
74503;SDS011;62988;55.776;37.544;2022-09-03T01:46:01;3.33;;;0.80;;
74503;SDS011;62988;55.776;37.544;2022-09-03T01:51:20;2.90;;;0.90;;
74503;SDS011;62988;55.776;37.544;2022-09-03T01:59:42;2.13;;;1.00;;
74503;SDS011;62988;55.776;37.544;2022-09-03T02:02:21;2.40;;;1.10;;
74503;SDS011;62988;55.776;37.544;2022-09-03T02:07:33;3.45;;;1.00;;
74503;SDS011;62988;55.776;37.544;2022-09-03T02:10:03;2.72;;;0.80;;
74503;SDS011;62988;55.776;37.544;2022-09-03T02:12:31;3.47;;;0.70;;
74503;SDS011;62988;55.776;37.544;2022-09-03T02:15:00;2.90;;;0.82;;
74503;SDS011;62988;55.776;37.544;2022-09-03T02:17:30;3.28;;;0.90;;
74503;SDS011;62988;55.776;37.544;2022-09-03T02:19:57;1.88;;;0.98;;
74503;SDS011;62988;55.776;37.544;2022-09-03T02:22:32;1.70;;;0.70;;
74503;SDS011;62988;55.776;37.544;2022-09-03T02:24:58;3.08;;;0.80;;
74503;SDS011;62988;55.776;37.544;2022-09-03T02:27:24;3.38;;;0.80;;
74503;SDS011;62988;55.776;37.544;2022-09-03T02:29:50;5.88;;;0.98;;
74503;SDS011;62988;55.776;37.544;2022-09-03T02:32:16;2.80;;;0.95;;
74503;SDS011;62988;55.776;37.544;2022-09-03T02:34:42;3.55;;;0.70;;
74503;SDS011;62988;55.776;37.544;2022-09-03T02:37:11;3.67;;;1.00;;
74503;SDS011;62988;55.776;37.544;2022-09-03T02:39:42;2.63;;;1.10;;
74503;SDS011;62988;55.776;37.544;2022-09-03T02:42:08;2.58;;;1.10;;
74503;SDS011;62988;55.776;37.544;2022-09-03T02:44:37;4.32;;;1.20;;
74503;SDS011;62988;55.776;37.544;2022-09-03T02:47:09;3.72;;;1.15;;
74503;SDS011;62988;55.776;37.544;2022-09-03T02:49:34;3.15;;;1.05;;
74503;SDS011;62988;55.776;37.544;2022-09-03T02:52:01;1.95;;;0.93;;
74503;SDS011;62988;55.776;37.544;2022-09-03T02:54:35;2.50;;;1.23;;
74503;SDS011;62988;55.776;37.544;2022-09-03T02:57:07;2.42;;;0.98;;
74503;SDS011;62988;55.776;37.544;2022-09-03T02:59:34;2.10;;;1.00;;
74503;SDS011;62988;55.776;37.544;2022-09-03T03:02:00;1.90;;;0.70;;
74503;SDS011;62988;55.776;37.544;2022-09-03T03:04:28;2.40;;;1.15;;
74503;SDS011;62988;55.776;37.544;2022-09-03T03:06:54;2.45;;;1.10;;
74503;SDS011;62988;55.776;37.544;2022-09-03T03:09:20;1.92;;;0.77;;
74503;SDS011;62988;55.776;37.544;2022-09-03T03:11:46;2.00;;;0.98;;
74503;SDS011;62988;55.776;37.544;2022-09-03T03:14:14;2.65;;;0.95;;
74503;SDS011;62988;55.776;37.544;2022-09-03T03:16:39;2.50;;;1.20;;
74503;SDS011;62988;55.776;37.544;2022-09-03T03:19:05;3.17;;;1.15;;
74503;SDS011;62988;55.776;37.544;2022-09-03T03:21:30;4.72;;;1.00;;
74503;SDS011;62988;55.776;37.544;2022-09-03T03:23:56;1.98;;;1.02;;
74503;SDS011;62988;55.776;37.544;2022-09-03T03:26:21;3.83;;;0.90;;
74503;SDS011;62988;55.776;37.544;2022-09-03T03:28:48;3.67;;;1.13;;
74503;SDS011;62988;55.776;37.544;2022-09-03T03:31:19;2.63;;;1.00;;
74503;SDS011;62988;55.776;37.544;2022-09-03T03:33:53;2.72;;;1.15;;
74503;SDS011;62988;55.776;37.544;2022-09-03T03:36:20;3.88;;;0.90;;
74503;SDS011;62988;55.776;37.544;2022-09-03T03:38:47;2.88;;;1.20;;
74503;SDS011;62988;55.776;37.544;2022-09-03T03:41:14;3.83;;;1.35;;
74503;SDS011;62988;55.776;37.544;2022-09-03T03:43:43;4.18;;;1.92;;
74503;SDS011;62988;55.776;37.544;2022-09-03T03:46:09;3.47;;;1.50;;
74503;SDS011;62988;55.776;37.544;2022-09-03T03:48:35;5.47;;;1.27;;
74503;SDS011;62988;55.776;37.544;2022-09-03T03:51:02;2.58;;;1.15;;
74503;SDS011;62988;55.776;37.544;2022-09-03T03:53:34;3.47;;;1.60;;
74503;SDS011;62988;55.776;37.544;2022-09-03T03:56:04;2.85;;;1.20;;
74503;SDS011;62988;55.776;37.544;2022-09-03T03:58:31;3.38;;;1.30;;
74503;SDS011;62988;55.776;37.544;2022-09-03T04:01:10;3.90;;;1.30;;
74503;SDS011;62988;55.776;37.544;2022-09-03T04:03:38;3.38;;;1.35;;
74503;SDS011;62988;55.776;37.544;2022-09-03T04:06:05;3.10;;;1.33;;
74503;SDS011;62988;55.776;37.544;2022-09-03T04:08:35;4.85;;;1.50;;
74503;SDS011;62988;55.776;37.544;2022-09-03T04:11:03;4.28;;;1.42;;
74503;SDS011;62988;55.776;37.544;2022-09-03T04:13:31;3.75;;;1.33;;
74503;SDS011;62988;55.776;37.544;2022-09-03T04:16:06;3.40;;;1.60;;
74503;SDS011;62988;55.776;37.544;2022-09-03T04:18:42;2.80;;;1.50;;
74503;SDS011;62988;55.776;37.544;2022-09-03T04:21:27;2.20;;;1.20;;
74503;SDS011;62988;55.776;37.544;2022-09-03T04:23:54;2.75;;;1.40;;
74503;SDS011;62988;55.776;37.544;2022-09-03T04:26:23;2.58;;;1.60;;
74503;SDS011;62988;55.776;37.544;2022-09-03T04:28:50;3.25;;;1.50;;
74503;SDS011;62988;55.776;37.544;2022-09-03T04:31:17;4.72;;;1.50;;
74503;SDS011;62988;55.776;37.544;2022-09-03T04:33:44;6.05;;;1.80;;
74503;SDS011;62988;55.776;37.544;2022-09-03T04:38:39;4.25;;;1.40;;
74503;SDS011;62988;55.776;37.544;2022-09-03T04:41:07;3.58;;;1.77;;
74503;SDS011;62988;55.776;37.544;2022-09-03T04:43:34;3.03;;;1.67;;
74503;SDS011;62988;55.776;37.544;2022-09-03T04:46:01;2.58;;;1.05;;
74503;SDS011;62988;55.776;37.544;2022-09-03T04:48:28;4.00;;;1.92;;
74503;SDS011;62988;55.776;37.544;2022-09-03T04:51:00;5.38;;;1.95;;
74503;SDS011;62988;55.776;37.544;2022-09-03T04:53:37;2.80;;;1.58;;
74503;SDS011;62988;55.776;37.544;2022-09-03T04:56:14;3.75;;;1.88;;
74503;SDS011;62988;55.776;37.544;2022-09-03T04:58:45;4.05;;;2.10;;
74503;SDS011;62988;55.776;37.544;2022-09-03T05:01:12;6.45;;;1.75;;
74503;SDS011;62988;55.776;37.544;2022-09-03T05:03:44;3.13;;;1.92;;
74503;SDS011;62988;55.776;37.544;2022-09-03T05:06:10;7.30;;;2.03;;
74503;SDS011;62988;55.776;37.544;2022-09-03T05:08:36;3.33;;;1.42;;
74503;SDS011;62988;55.776;37.544;2022-09-03T05:11:02;3.70;;;1.80;;
74503;SDS011;62988;55.776;37.544;2022-09-03T05:13:29;3.17;;;1.75;;
74503;SDS011;62988;55.776;37.544;2022-09-03T05:15:58;4.53;;;2.30;;
74503;SDS011;62988;55.776;37.544;2022-09-03T05:18:28;5.07;;;2.33;;
74503;SDS011;62988;55.776;37.544;2022-09-03T05:23:26;5.25;;;2.45;;
74503;SDS011;62988;55.776;37.544;2022-09-03T05:25:57;3.00;;;2.05;;
74503;SDS011;62988;55.776;37.544;2022-09-03T05:28:24;3.42;;;1.95;;
74503;SDS011;62988;55.776;37.544;2022-09-03T05:31:00;3.88;;;1.85;;
74503;SDS011;62988;55.776;37.544;2022-09-03T05:33:28;3.60;;;1.67;;
74503;SDS011;62988;55.776;37.544;2022-09-03T05:35:59;3.22;;;2.13;;
74503;SDS011;62988;55.776;37.544;2022-09-03T05:38:26;4.10;;;1.85;;
74503;SDS011;62988;55.776;37.544;2022-09-03T05:40:52;4.75;;;2.08;;
74503;SDS011;62988;55.776;37.544;2022-09-03T05:43:17;4.25;;;2.20;;
74503;SDS011;62988;55.776;37.544;2022-09-03T05:45:44;5.72;;;2.25;;
74503;SDS011;62988;55.776;37.544;2022-09-03T05:48:09;3.85;;;2.30;;
74503;SDS011;62988;55.776;37.544;2022-09-03T05:50:35;3.22;;;1.88;;
74503;SDS011;62988;55.776;37.544;2022-09-03T05:53:01;5.40;;;1.75;;
74503;SDS011;62988;55.776;37.544;2022-09-03T05:55:26;3.05;;;1.75;;
74503;SDS011;62988;55.776;37.544;2022-09-03T05:57:52;2.95;;;1.70;;
74503;SDS011;62988;55.776;37.544;2022-09-03T06:00:19;2.65;;;1.60;;
74503;SDS011;62988;55.776;37.544;2022-09-03T06:02:50;3.90;;;2.25;;
74503;SDS011;62988;55.776;37.544;2022-09-03T06:05:19;3.78;;;1.67;;
74503;SDS011;62988;55.776;37.544;2022-09-03T06:07:44;4.07;;;1.83;;
74503;SDS011;62988;55.776;37.544;2022-09-03T06:10:14;3.30;;;1.80;;
74503;SDS011;62988;55.776;37.544;2022-09-03T06:12:41;4.65;;;1.83;;
74503;SDS011;62988;55.776;37.544;2022-09-03T06:15:09;4.13;;;1.48;;
74503;SDS011;62988;55.776;37.544;2022-09-03T06:17:36;2.65;;;1.30;;
74503;SDS011;62988;55.776;37.544;2022-09-03T06:20:02;3.65;;;1.30;;
74503;SDS011;62988;55.776;37.544;2022-09-03T06:22:28;4.18;;;1.70;;
74503;SDS011;62988;55.776;37.544;2022-09-03T06:24:55;3.05;;;1.40;;
74503;SDS011;62988;55.776;37.544;2022-09-03T06:27:20;2.67;;;1.58;;
74503;SDS011;62988;55.776;37.544;2022-09-03T06:29:46;4.72;;;1.77;;
74503;SDS011;62988;55.776;37.544;2022-09-03T06:32:12;6.53;;;1.80;;
74503;SDS011;62988;55.776;37.544;2022-09-03T06:34:38;5.93;;;1.65;;
74503;SDS011;62988;55.776;37.544;2022-09-03T06:37:03;2.95;;;1.30;;
74503;SDS011;62988;55.776;37.544;2022-09-03T06:39:29;3.97;;;1.23;;
74503;SDS011;62988;55.776;37.544;2022-09-03T06:41:54;2.90;;;1.20;;
74503;SDS011;62988;55.776;37.544;2022-09-03T06:44:20;8.30;;;1.20;;
74503;SDS011;62988;55.776;37.544;2022-09-03T06:46:45;2.40;;;0.90;;
74503;SDS011;62988;55.776;37.544;2022-09-03T06:49:12;2.95;;;1.42;;
74503;SDS011;62988;55.776;37.544;2022-09-03T06:51:38;3.20;;;0.90;;
74503;SDS011;62988;55.776;37.544;2022-09-03T06:54:08;3.85;;;1.00;;
74503;SDS011;62988;55.776;37.544;2022-09-03T06:56:35;3.42;;;1.42;;
74503;SDS011;62988;55.776;37.544;2022-09-03T06:59:04;3.28;;;1.00;;
74503;SDS011;62988;55.776;37.544;2022-09-03T07:01:31;2.17;;;0.90;;
74503;SDS011;62988;55.776;37.544;2022-09-03T07:03:58;1.75;;;0.73;;
74503;SDS011;62988;55.776;37.544;2022-09-03T07:06:27;2.33;;;1.00;;
74503;SDS011;62988;55.776;37.544;2022-09-03T07:08:57;2.03;;;0.73;;
74503;SDS011;62988;55.776;37.544;2022-09-03T07:11:25;5.53;;;0.95;;
74503;SDS011;62988;55.776;37.544;2022-09-03T07:13:53;1.98;;;0.75;;
74503;SDS011;62988;55.776;37.544;2022-09-03T07:16:24;1.58;;;0.60;;
74503;SDS011;62988;55.776;37.544;2022-09-03T07:18:51;2.45;;;0.60;;
74503;SDS011;62988;55.776;37.544;2022-09-03T07:21:19;1.40;;;0.60;;
74503;SDS011;62988;55.776;37.544;2022-09-03T07:23:46;1.55;;;0.55;;
74503;SDS011;62988;55.776;37.544;2022-09-03T07:26:14;3.75;;;1.00;;
74503;SDS011;62988;55.776;37.544;2022-09-03T07:28:41;1.35;;;0.50;;
74503;SDS011;62988;55.776;37.544;2022-09-03T07:31:20;2.63;;;0.60;;
74503;SDS011;62988;55.776;37.544;2022-09-03T07:33:53;1.83;;;0.60;;
74503;SDS011;62988;55.776;37.544;2022-09-03T07:36:22;2.15;;;0.60;;
74503;SDS011;62988;55.776;37.544;2022-09-03T07:38:49;1.50;;;0.70;;
74503;SDS011;62988;55.776;37.544;2022-09-03T07:41:15;2.40;;;0.70;;
74503;SDS011;62988;55.776;37.544;2022-09-03T07:43:43;1.55;;;0.65;;
74503;SDS011;62988;55.776;37.544;2022-09-03T07:46:17;1.67;;;0.82;;
74503;SDS011;62988;55.776;37.544;2022-09-03T07:48:47;2.78;;;0.70;;
74503;SDS011;62988;55.776;37.544;2022-09-03T07:51:15;2.85;;;0.73;;
74503;SDS011;62988;55.776;37.544;2022-09-03T07:53:41;1.45;;;0.68;;
74503;SDS011;62988;55.776;37.544;2022-09-03T07:56:08;1.70;;;0.80;;
74503;SDS011;62988;55.776;37.544;2022-09-03T07:58:35;2.05;;;0.85;;
74503;SDS011;62988;55.776;37.544;2022-09-03T08:01:06;4.90;;;0.88;;
74503;SDS011;62988;55.776;37.544;2022-09-03T08:03:34;2.17;;;0.88;;
74503;SDS011;62988;55.776;37.544;2022-09-03T08:06:00;1.80;;;0.73;;
74503;SDS011;62988;55.776;37.544;2022-09-03T08:08:27;2.35;;;0.90;;
74503;SDS011;62988;55.776;37.544;2022-09-03T08:10:52;1.50;;;0.70;;
74503;SDS011;62988;55.776;37.544;2022-09-03T08:13:18;5.47;;;0.55;;
74503;SDS011;62988;55.776;37.544;2022-09-03T08:15:52;2.55;;;1.08;;
74503;SDS011;62988;55.776;37.544;2022-09-03T08:18:18;2.67;;;0.90;;
74503;SDS011;62988;55.776;37.544;2022-09-03T08:20:44;3.05;;;0.70;;
74503;SDS011;62988;55.776;37.544;2022-09-03T08:23:09;3.72;;;0.90;;
74503;SDS011;62988;55.776;37.544;2022-09-03T08:25:38;2.35;;;0.60;;
74503;SDS011;62988;55.776;37.544;2022-09-03T08:28:04;2.97;;;0.60;;
74503;SDS011;62988;55.776;37.544;2022-09-03T08:30:29;1.95;;;0.60;;
74503;SDS011;62988;55.776;37.544;2022-09-03T08:32:55;2.00;;;0.85;;
74503;SDS011;62988;55.776;37.544;2022-09-03T08:35:20;1.75;;;0.55;;
74503;SDS011;62988;55.776;37.544;2022-09-03T08:37:47;2.90;;;0.80;;
74503;SDS011;62988;55.776;37.544;2022-09-03T08:40:15;2.78;;;0.73;;
74503;SDS011;62988;55.776;37.544;2022-09-03T08:42:52;2.30;;;0.60;;
74503;SDS011;62988;55.776;37.544;2022-09-03T08:45:53;2.53;;;0.70;;
74503;SDS011;62988;55.776;37.544;2022-09-03T08:48:20;2.72;;;0.85;;
74503;SDS011;62988;55.776;37.544;2022-09-03T08:50:49;2.20;;;0.52;;
74503;SDS011;62988;55.776;37.544;2022-09-03T08:53:21;1.10;;;0.50;;
74503;SDS011;62988;55.776;37.544;2022-09-03T08:56:07;4.80;;;0.57;;
74503;SDS011;62988;55.776;37.544;2022-09-03T08:58:36;1.27;;;0.50;;
74503;SDS011;62988;55.776;37.544;2022-09-03T09:03:42;1.60;;;0.55;;
74503;SDS011;62988;55.776;37.544;2022-09-03T09:06:22;3.28;;;0.73;;
74503;SDS011;62988;55.776;37.544;2022-09-03T09:23:07;1.13;;;0.43;;
74503;SDS011;62988;55.776;37.544;2022-09-03T09:25:48;1.58;;;0.52;;
74503;SDS011;62988;55.776;37.544;2022-09-03T09:28:16;3.58;;;0.80;;
74503;SDS011;62988;55.776;37.544;2022-09-03T09:30:47;1.40;;;0.50;;
74503;SDS011;62988;55.776;37.544;2022-09-03T09:33:14;1.90;;;0.60;;
74503;SDS011;62988;55.776;37.544;2022-09-03T09:35:41;4.50;;;0.50;;
74503;SDS011;62988;55.776;37.544;2022-09-03T09:38:08;1.20;;;0.50;;
74503;SDS011;62988;55.776;37.544;2022-09-03T09:40:35;3.15;;;0.80;;
74503;SDS011;62988;55.776;37.544;2022-09-03T09:43:08;2.03;;;0.70;;
74503;SDS011;62988;55.776;37.544;2022-09-03T09:45:40;4.55;;;0.80;;
74503;SDS011;62988;55.776;37.544;2022-09-03T09:51:11;2.60;;;0.75;;
74503;SDS011;62988;55.776;37.544;2022-09-03T09:53:38;1.33;;;0.57;;
74503;SDS011;62988;55.776;37.544;2022-09-03T09:56:05;3.85;;;0.60;;
74503;SDS011;62988;55.776;37.544;2022-09-03T09:58:31;3.28;;;1.40;;
74503;SDS011;62988;55.776;37.544;2022-09-03T10:01:03;1.88;;;0.50;;
74503;SDS011;62988;55.776;37.544;2022-09-03T10:03:38;2.17;;;0.60;;
74503;SDS011;62988;55.776;37.544;2022-09-03T10:09:08;2.25;;;0.52;;
74503;SDS011;62988;55.776;37.544;2022-09-03T10:11:36;3.35;;;0.63;;
74503;SDS011;62988;55.776;37.544;2022-09-03T10:19:15;4.68;;;0.50;;
74503;SDS011;62988;55.776;37.544;2022-09-03T10:21:57;4.05;;;0.70;;
74503;SDS011;62988;55.776;37.544;2022-09-03T10:27:16;1.13;;;0.50;;
74503;SDS011;62988;55.776;37.544;2022-09-03T10:29:42;2.20;;;0.60;;
74503;SDS011;62988;55.776;37.544;2022-09-03T10:35:09;1.65;;;0.60;;
74503;SDS011;62988;55.776;37.544;2022-09-03T10:38:04;1.88;;;0.45;;
74503;SDS011;62988;55.776;37.544;2022-09-03T10:40:41;1.92;;;0.60;;
74503;SDS011;62988;55.776;37.544;2022-09-03T10:46:14;1.13;;;0.45;;
74503;SDS011;62988;55.776;37.544;2022-09-03T10:48:46;1.65;;;0.50;;
74503;SDS011;62988;55.776;37.544;2022-09-03T10:59:35;1.70;;;0.50;;
74503;SDS011;62988;55.776;37.544;2022-09-03T11:07:44;1.42;;;0.50;;
74503;SDS011;62988;55.776;37.544;2022-09-03T11:15:23;1.10;;;0.50;;
74503;SDS011;62988;55.776;37.544;2022-09-03T11:20:42;1.60;;;0.60;;
74503;SDS011;62988;55.776;37.544;2022-09-03T11:23:08;2.17;;;0.93;;
74503;SDS011;62988;55.776;37.544;2022-09-03T11:25:41;1.85;;;0.80;;
74503;SDS011;62988;55.776;37.544;2022-09-03T11:34:24;1.70;;;0.50;;
74503;SDS011;62988;55.776;37.544;2022-09-03T11:36:47;2.22;;;0.70;;
74503;SDS011;62988;55.776;37.544;2022-09-03T11:39:19;1.73;;;0.60;;
74503;SDS011;62988;55.776;37.544;2022-09-03T11:41:57;3.83;;;0.50;;
74503;SDS011;62988;55.776;37.544;2022-09-03T11:44:34;0.93;;;0.40;;
74503;SDS011;62988;55.776;37.544;2022-09-03T11:47:11;4.18;;;0.60;;
74503;SDS011;62988;55.776;37.544;2022-09-03T11:49:51;1.27;;;0.45;;
74503;SDS011;62988;55.776;37.544;2022-09-03T11:52:29;1.50;;;0.60;;
74503;SDS011;62988;55.776;37.544;2022-09-03T11:54:56;1.58;;;0.60;;
74503;SDS011;62988;55.776;37.544;2022-09-03T11:57:29;2.28;;;0.65;;
74503;SDS011;62988;55.776;37.544;2022-09-03T12:00:11;1.27;;;0.47;;
74503;SDS011;62988;55.776;37.544;2022-09-03T12:02:43;3.03;;;0.70;;
74503;SDS011;62988;55.776;37.544;2022-09-03T12:05:27;2.45;;;0.52;;
74503;SDS011;62988;55.776;37.544;2022-09-03T12:08:08;1.77;;;0.82;;
74503;SDS011;62988;55.776;37.544;2022-09-03T12:11:10;2.13;;;0.70;;
74503;SDS011;62988;55.776;37.544;2022-09-03T12:14:04;3.20;;;1.05;;
74503;SDS011;62988;55.776;37.544;2022-09-03T12:22:16;3.63;;;1.13;;
74503;SDS011;62988;55.776;37.544;2022-09-03T12:24:42;7.18;;;1.02;;
74503;SDS011;62988;55.776;37.544;2022-09-03T12:27:19;4.03;;;0.80;;
74503;SDS011;62988;55.776;37.544;2022-09-03T12:29:56;12.15;;;1.60;;
74503;SDS011;62988;55.776;37.544;2022-09-03T12:32:34;7.40;;;1.00;;
74503;SDS011;62988;55.776;37.544;2022-09-03T12:35:37;10.18;;;0.93;;
74503;SDS011;62988;55.776;37.544;2022-09-03T12:37:56;8.18;;;0.90;;
74503;SDS011;62988;55.776;37.544;2022-09-03T12:40:26;2.53;;;0.73;;
74503;SDS011;62988;55.776;37.544;2022-09-03T12:42:54;3.33;;;0.90;;
74503;SDS011;62988;55.776;37.544;2022-09-03T12:45:24;4.85;;;0.90;;
74503;SDS011;62988;55.776;37.544;2022-09-03T12:47:51;1.90;;;0.65;;
74503;SDS011;62988;55.776;37.544;2022-09-03T12:50:23;1.48;;;0.60;;
74503;SDS011;62988;55.776;37.544;2022-09-03T12:52:50;2.75;;;0.73;;
74503;SDS011;62988;55.776;37.544;2022-09-03T13:00:51;3.35;;;0.60;;
74503;SDS011;62988;55.776;37.544;2022-09-03T13:06:39;1.80;;;0.82;;
74503;SDS011;62988;55.776;37.544;2022-09-03T13:09:07;3.25;;;0.80;;
74503;SDS011;62988;55.776;37.544;2022-09-03T13:11:34;3.03;;;0.70;;
74503;SDS011;62988;55.776;37.544;2022-09-03T13:14:05;2.97;;;0.80;;
74503;SDS011;62988;55.776;37.544;2022-09-03T13:16:43;5.03;;;0.73;;
74503;SDS011;62988;55.776;37.544;2022-09-03T13:25:11;1.35;;;0.47;;
74503;SDS011;62988;55.776;37.544;2022-09-03T13:30:20;1.90;;;0.70;;
74503;SDS011;62988;55.776;37.544;2022-09-03T13:32:58;2.20;;;0.70;;
74503;SDS011;62988;55.776;37.544;2022-09-03T13:44:19;1.63;;;0.52;;
74503;SDS011;62988;55.776;37.544;2022-09-03T13:47:00;2.83;;;0.50;;
74503;SDS011;62988;55.776;37.544;2022-09-03T13:49:39;1.38;;;0.30;;
74503;SDS011;62988;55.776;37.544;2022-09-03T13:54:55;4.32;;;0.60;;
74503;SDS011;62988;55.776;37.544;2022-09-03T13:57:29;2.55;;;0.60;;
74503;SDS011;62988;55.776;37.544;2022-09-03T14:00:41;1.67;;;0.57;;
74503;SDS011;62988;55.776;37.544;2022-09-03T14:11:01;1.77;;;0.50;;
74503;SDS011;62988;55.776;37.544;2022-09-03T14:24:25;4.90;;;0.52;;
74503;SDS011;62988;55.776;37.544;2022-09-03T14:27:02;2.53;;;0.80;;
74503;SDS011;62988;55.776;37.544;2022-09-03T14:29:30;5.55;;;0.80;;
74503;SDS011;62988;55.776;37.544;2022-09-03T14:34:56;1.83;;;0.70;;
74503;SDS011;62988;55.776;37.544;2022-09-03T14:45:35;2.67;;;0.80;;
74503;SDS011;62988;55.776;37.544;2022-09-03T15:07:39;2.92;;;0.90;;
74503;SDS011;62988;55.776;37.544;2022-09-03T15:12:56;1.60;;;0.70;;
74503;SDS011;62988;55.776;37.544;2022-09-03T15:29:22;2.80;;;0.80;;
74503;SDS011;62988;55.776;37.544;2022-09-03T15:32:23;2.08;;;0.60;;
74503;SDS011;62988;55.776;37.544;2022-09-03T15:35:08;1.95;;;0.60;;
74503;SDS011;62988;55.776;37.544;2022-09-03T15:37:41;2.30;;;0.50;;
74503;SDS011;62988;55.776;37.544;2022-09-03T15:43:24;2.15;;;0.60;;
74503;SDS011;62988;55.776;37.544;2022-09-03T15:45:54;2.67;;;0.70;;
74503;SDS011;62988;55.776;37.544;2022-09-03T15:51:27;2.33;;;0.80;;
74503;SDS011;62988;55.776;37.544;2022-09-03T15:59:40;3.50;;;1.10;;
74503;SDS011;62988;55.776;37.544;2022-09-03T16:02:16;2.58;;;0.90;;
74503;SDS011;62988;55.776;37.544;2022-09-03T16:07:23;3.03;;;0.80;;
74503;SDS011;62988;55.776;37.544;2022-09-03T16:21:08;4.45;;;0.90;;
74503;SDS011;62988;55.776;37.544;2022-09-03T16:26:20;2.83;;;0.90;;
74503;SDS011;62988;55.776;37.544;2022-09-03T16:29:26;3.75;;;0.80;;
74503;SDS011;62988;55.776;37.544;2022-09-03T17:01:52;6.30;;;2.10;;
74503;SDS011;62988;55.776;37.544;2022-09-03T17:15:21;14.45;;;2.20;;
74503;SDS011;62988;55.776;37.544;2022-09-03T17:20:46;5.15;;;2.05;;
74503;SDS011;62988;55.776;37.544;2022-09-03T17:31:59;6.88;;;1.40;;
74503;SDS011;62988;55.776;37.544;2022-09-03T17:45:50;3.17;;;1.10;;
74503;SDS011;62988;55.776;37.544;2022-09-03T17:51:41;3.15;;;1.65;;
74503;SDS011;62988;55.776;37.544;2022-09-03T17:54:11;2.72;;;1.30;;
74503;SDS011;62988;55.776;37.544;2022-09-03T18:02:35;3.20;;;1.15;;
74503;SDS011;62988;55.776;37.544;2022-09-03T18:05:07;5.07;;;1.40;;
74503;SDS011;62988;55.776;37.544;2022-09-03T18:15:51;8.65;;;2.05;;
74503;SDS011;62988;55.776;37.544;2022-09-03T18:18:28;5.43;;;1.90;;
74503;SDS011;62988;55.776;37.544;2022-09-03T18:20:56;11.52;;;2.20;;
74503;SDS011;62988;55.776;37.544;2022-09-03T18:23:51;6.82;;;2.30;;
74503;SDS011;62988;55.776;37.544;2022-09-03T18:26:43;11.43;;;2.63;;
74503;SDS011;62988;55.776;37.544;2022-09-03T18:29:42;4.40;;;2.20;;
74503;SDS011;62988;55.776;37.544;2022-09-03T18:32:31;11.63;;;2.50;;
74503;SDS011;62988;55.776;37.544;2022-09-03T18:35:15;7.68;;;1.80;;
74503;SDS011;62988;55.776;37.544;2022-09-03T18:38:01;10.38;;;2.50;;
74503;SDS011;62988;55.776;37.544;2022-09-03T18:41:05;5.20;;;2.33;;
74503;SDS011;62988;55.776;37.544;2022-09-03T18:44:22;4.53;;;1.50;;
74503;SDS011;62988;55.776;37.544;2022-09-03T18:50:44;7.35;;;2.30;;
74503;SDS011;62988;55.776;37.544;2022-09-03T18:57:29;14.02;;;5.68;;
74503;SDS011;62988;55.776;37.544;2022-09-03T19:00:23;6.95;;;3.38;;
74503;SDS011;62988;55.776;37.544;2022-09-03T19:23:54;6.30;;;1.33;;
74503;SDS011;62988;55.776;37.544;2022-09-03T19:26:44;4.97;;;1.63;;
74503;SDS011;62988;55.776;37.544;2022-09-03T19:32:34;6.10;;;1.55;;
74503;SDS011;62988;55.776;37.544;2022-09-03T19:35:39;4.32;;;1.52;;
74503;SDS011;62988;55.776;37.544;2022-09-03T19:42:10;4.63;;;1.50;;
74503;SDS011;62988;55.776;37.544;2022-09-03T19:51:18;11.60;;;1.75;;
74503;SDS011;62988;55.776;37.544;2022-09-03T19:54:05;6.57;;;2.22;;
74503;SDS011;62988;55.776;37.544;2022-09-03T19:56:53;9.68;;;2.05;;
74503;SDS011;62988;55.776;37.544;2022-09-03T19:59:39;6.90;;;2.17;;
74503;SDS011;62988;55.776;37.544;2022-09-03T20:02:25;9.02;;;2.30;;
74503;SDS011;62988;55.776;37.544;2022-09-03T20:05:11;5.60;;;1.58;;
74503;SDS011;62988;55.776;37.544;2022-09-03T20:07:59;4.80;;;1.45;;
74503;SDS011;62988;55.776;37.544;2022-09-03T20:10:44;5.93;;;1.75;;
74503;SDS011;62988;55.776;37.544;2022-09-03T20:13:14;2.17;;;0.77;;
74503;SDS011;62988;55.776;37.544;2022-09-03T20:21:07;3.28;;;0.75;;
74503;SDS011;62988;55.776;37.544;2022-09-03T20:23:45;1.60;;;0.60;;
74503;SDS011;62988;55.776;37.544;2022-09-03T20:26:26;3.38;;;1.05;;
74503;SDS011;62988;55.776;37.544;2022-09-03T20:32:33;3.00;;;0.93;;
74503;SDS011;62988;55.776;37.544;2022-09-03T20:35:09;4.72;;;0.82;;
74503;SDS011;62988;55.776;37.544;2022-09-03T20:40:44;2.03;;;0.65;;
74503;SDS011;62988;55.776;37.544;2022-09-03T20:43:27;1.55;;;0.70;;
74503;SDS011;62988;55.776;37.544;2022-09-03T20:46:09;4.18;;;0.88;;
74503;SDS011;62988;55.776;37.544;2022-09-03T20:51:32;1.95;;;0.98;;
74503;SDS011;62988;55.776;37.544;2022-09-03T20:54:28;3.20;;;1.02;;
74503;SDS011;62988;55.776;37.544;2022-09-03T21:13:49;3.30;;;1.20;;
74503;SDS011;62988;55.776;37.544;2022-09-03T21:16:22;2.72;;;1.30;;
74503;SDS011;62988;55.776;37.544;2022-09-03T21:18:57;2.17;;;1.15;;
74503;SDS011;62988;55.776;37.544;2022-09-03T21:24:14;5.72;;;1.25;;
74503;SDS011;62988;55.776;37.544;2022-09-03T21:26:46;3.47;;;1.30;;
74503;SDS011;62988;55.776;37.544;2022-09-03T21:29:26;3.58;;;1.70;;
74503;SDS011;62988;55.776;37.544;2022-09-03T21:34:45;3.22;;;1.40;;
74503;SDS011;62988;55.776;37.544;2022-09-03T21:37:22;3.17;;;1.30;;
74503;SDS011;62988;55.776;37.544;2022-09-03T21:45:10;4.75;;;1.90;;
74503;SDS011;62988;55.776;37.544;2022-09-03T21:47:46;4.13;;;1.70;;
74503;SDS011;62988;55.776;37.544;2022-09-03T21:50:18;4.47;;;2.15;;
74503;SDS011;62988;55.776;37.544;2022-09-03T22:01:12;5.75;;;2.70;;
74503;SDS011;62988;55.776;37.544;2022-09-03T22:03:44;4.97;;;2.78;;
74503;SDS011;62988;55.776;37.544;2022-09-03T22:06:12;7.43;;;2.97;;
74503;SDS011;62988;55.776;37.544;2022-09-03T22:09:29;6.28;;;2.58;;
74503;SDS011;62988;55.776;37.544;2022-09-03T22:14:16;5.63;;;2.22;;
74503;SDS011;62988;55.776;37.544;2022-09-03T22:16:46;4.82;;;1.95;;
74503;SDS011;62988;55.776;37.544;2022-09-03T22:19:26;6.05;;;2.45;;
74503;SDS011;62988;55.776;37.544;2022-09-03T22:21:54;4.32;;;2.00;;